createdAt,value
2018-07-16T00:00:36.894Z,101267.28
2018-07-16T00:03:05.705Z,101264.20
2018-07-16T00:05:34.187Z,101259.84
2018-07-16T00:08:02.757Z,101264.34
2018-07-16T00:10:31.679Z,101270.16
2018-07-16T00:13:00.375Z,101270.20
2018-07-16T00:15:28.862Z,101271.59
2018-07-16T00:17:57.477Z,101263.20
2018-07-16T00:20:26.227Z,101260.10
2018-07-16T00:22:54.899Z,101267.23
2018-07-16T00:25:23.527Z,101269.05
2018-07-16T00:27:52.781Z,101273.55
2018-07-16T00:30:21.526Z,101265.61
2018-07-16T00:32:49.969Z,101268.33
2018-07-16T00:35:18.733Z,101268.37
2018-07-16T00:37:48.010Z,101265.30
2018-07-16T00:40:16.552Z,101270.69
2018-07-16T00:42:45.496Z,101270.27
2018-07-16T00:45:14.221Z,101262.73
2018-07-16T00:47:42.916Z,101266.32
2018-07-16T00:50:11.449Z,101281.02
2018-07-16T00:52:40.405Z,101277.93
2018-07-16T00:55:08.865Z,101276.16
2018-07-16T00:57:37.508Z,101277.08
2018-07-16T01:00:06.075Z,101279.32
2018-07-16T01:02:35.009Z,101278.02
2018-07-16T01:05:03.723Z,101283.83
2018-07-16T01:07:32.366Z,101284.77
2018-07-16T01:10:00.812Z,101292.36
2018-07-16T01:12:29.773Z,101283.52
2018-07-16T01:14:58.261Z,101281.77
2018-07-16T01:17:26.738Z,101290.70
2018-07-16T01:19:55.677Z,101293.83
2018-07-16T01:22:24.535Z,101292.53
2018-07-16T01:24:52.999Z,101291.21
2018-07-16T01:27:21.829Z,101293.02
2018-07-16T01:29:50.583Z,101291.73
2018-07-16T01:32:19.015Z,101291.79
2018-07-16T01:34:47.790Z,101294.04
2018-07-16T01:37:16.616Z,101296.28
2018-07-16T01:39:46.102Z,101299.42
2018-07-16T01:42:14.780Z,101295.88
2018-07-16T01:44:43.269Z,101295.00
2018-07-16T01:47:12.529Z,101289.69
2018-07-16T01:49:40.997Z,101299.03
2018-07-16T01:52:09.478Z,101294.62
2018-07-16T01:54:38.152Z,101300.87
2018-07-16T01:57:06.745Z,101296.43
2018-07-16T01:59:35.213Z,101297.78
2018-07-16T02:02:03.845Z,101293.80
2018-07-16T02:04:32.709Z,101295.14
2018-07-16T02:07:01.165Z,101288.93
2018-07-16T02:09:29.631Z,101291.61
2018-07-16T02:11:58.522Z,101288.95
2018-07-16T02:14:27.289Z,101291.22
2018-07-16T02:16:55.740Z,101293.91
2018-07-16T02:19:24.537Z,101293.44
2018-07-16T02:21:53.257Z,101296.99
2018-07-16T02:24:21.705Z,101288.56
2018-07-16T02:26:50.481Z,101287.69
2018-07-16T02:36:10.333Z,101285.08
2018-07-16T02:38:38.830Z,101287.75
2018-07-16T02:41:07.307Z,101291.75
2018-07-16T02:43:36.313Z,101262.95
2018-07-16T02:46:04.786Z,101292.16
2018-07-16T02:48:33.225Z,101294.36
2018-07-16T02:51:02.062Z,101290.77
2018-07-16T02:53:30.506Z,101292.10
2018-07-16T02:55:59.649Z,101288.48
2018-07-16T02:58:29.326Z,101291.53
2018-07-16T03:00:58.103Z,101288.39
2018-07-16T03:03:26.545Z,101288.33
2018-07-16T03:05:55.409Z,101290.53
2018-07-16T03:08:24.177Z,101292.30
2018-07-16T03:10:52.625Z,101292.73
2018-07-16T03:13:21.765Z,101294.94
2018-07-16T03:15:50.590Z,101298.04
2018-07-16T03:18:19.033Z,101301.56
2018-07-16T03:20:48.121Z,101298.45
2018-07-16T03:23:16.889Z,101296.21
2018-07-16T03:25:45.341Z,101293.51
2018-07-16T03:28:14.278Z,101301.91
2018-07-16T03:30:42.957Z,101300.11
2018-07-16T03:33:11.671Z,101302.69
2018-07-16T03:35:40.541Z,101309.31
2018-07-16T03:38:08.987Z,101313.27
2018-07-16T03:40:37.725Z,101312.34
2018-07-16T03:43:06.682Z,101313.67
2018-07-16T03:45:35.121Z,101315.45
2018-07-16T03:48:03.794Z,101313.19
2018-07-16T03:50:32.717Z,101321.11
2018-07-16T03:53:01.458Z,101316.14
2018-07-16T03:55:29.930Z,101314.31
2018-07-16T03:57:59.551Z,101318.69
2018-07-16T04:00:28.019Z,101318.13
2018-07-16T04:02:56.457Z,101319.77
2018-07-16T04:05:25.675Z,101315.23
2018-07-16T04:07:54.469Z,101317.30
2018-07-16T04:10:23.186Z,101320.34
2018-07-16T04:12:52.057Z,101318.03
2018-07-16T04:15:20.505Z,101321.19
2018-07-16T04:17:49.303Z,101325.11
2018-07-16T04:20:18.204Z,101324.15
2018-07-16T04:22:46.884Z,101298.37
2018-07-16T04:25:15.885Z,101324.08
2018-07-16T04:27:44.427Z,101316.44
2018-07-16T04:30:12.890Z,101315.94
2018-07-16T04:32:41.469Z,101316.75
2018-07-16T04:35:10.201Z,101323.80
2018-07-16T04:37:38.649Z,101326.00
2018-07-16T04:40:07.221Z,101325.11
2018-07-16T04:42:36.262Z,101325.97
2018-07-16T04:45:04.740Z,101330.84
2018-07-16T04:47:33.177Z,101331.63
2018-07-16T04:50:02.110Z,101328.93
2018-07-16T04:52:30.575Z,101330.70
2018-07-16T04:54:59.036Z,101330.22
2018-07-16T04:57:28.391Z,101333.67
2018-07-16T04:59:57.297Z,101333.58
2018-07-16T05:02:25.732Z,101333.50
2018-07-16T05:04:54.525Z,101332.50
2018-07-16T05:07:23.529Z,101332.91
2018-07-16T05:09:52.016Z,101317.83
2018-07-16T05:12:20.890Z,101335.15
2018-07-16T05:14:49.893Z,101331.97
2018-07-16T05:17:18.578Z,101334.59
2018-07-16T05:19:47.555Z,101316.95
2018-07-16T05:22:16.297Z,101333.73
2018-07-16T05:24:45.019Z,101332.80
2018-07-16T05:27:13.821Z,101328.33
2018-07-16T05:29:42.591Z,101328.30
2018-07-16T05:32:11.784Z,101337.59
2018-07-16T05:34:40.744Z,101329.05
2018-07-16T05:37:09.232Z,101333.89
2018-07-16T05:39:37.676Z,101334.30
2018-07-16T05:42:06.574Z,101340.02
2018-07-16T05:44:35.053Z,101339.09
2018-07-16T05:47:03.637Z,101342.16
2018-07-16T05:49:32.305Z,101346.52
2018-07-16T05:52:01.122Z,101342.88
2018-07-16T05:54:29.793Z,101341.02
2018-07-16T05:56:58.381Z,101343.61
2018-07-16T05:59:27.248Z,101343.06
2018-07-16T06:01:55.878Z,101350.07
2018-07-16T06:04:24.447Z,101346.81
2018-07-16T06:06:53.214Z,101350.31
2018-07-16T06:09:21.753Z,101348.52
2018-07-16T06:11:50.356Z,101347.11
2018-07-16T06:14:18.789Z,101343.03
2018-07-16T06:16:47.480Z,101344.64
2018-07-16T06:19:16.030Z,101351.19
2018-07-16T06:21:44.525Z,101346.22
2018-07-16T06:24:13.201Z,101343.83
2018-07-16T06:26:42.586Z,101348.14
2018-07-16T06:29:11.017Z,101346.24
2018-07-16T06:31:39.757Z,101349.73
2018-07-16T06:34:08.664Z,101325.28
2018-07-16T06:36:37.101Z,101343.67
2018-07-16T06:39:06.078Z,101344.84
2018-07-16T06:41:35.658Z,101343.78
2018-07-16T06:44:03.812Z,101343.67
2018-07-16T06:46:32.337Z,101337.73
2018-07-16T06:49:01.094Z,101343.88
2018-07-16T06:51:29.574Z,101337.45
2018-07-16T06:53:57.998Z,101338.21
2018-07-16T06:56:26.622Z,101337.60
2018-07-16T06:58:55.609Z,101344.50
2018-07-16T07:01:24.038Z,101339.36
2018-07-16T07:03:53.164Z,101341.30
2018-07-16T07:06:21.732Z,101340.09
2018-07-16T07:08:50.162Z,101338.00
2018-07-16T07:11:19.538Z,101333.63
2018-07-16T07:13:48.317Z,101334.89
2018-07-16T07:16:16.981Z,101332.31
2018-07-16T07:18:45.991Z,101324.80
2018-07-16T07:21:14.450Z,101327.49
2018-07-16T07:23:43.303Z,101324.38
2018-07-16T07:26:12.277Z,101325.25
2018-07-16T07:28:40.911Z,101322.52
2018-07-16T07:31:09.524Z,101322.75
2018-07-16T07:33:38.251Z,101321.87
2018-07-16T07:36:06.754Z,101317.73
2018-07-16T07:38:35.175Z,101322.36
2018-07-16T07:41:04.165Z,101322.49
2018-07-16T07:43:32.618Z,101318.23
2018-07-16T07:46:01.064Z,101311.95
2018-07-16T07:48:30.450Z,101305.70
2018-07-16T07:50:58.963Z,101308.89
2018-07-16T07:53:27.433Z,101312.61
2018-07-16T07:55:56.192Z,101311.77
2018-07-16T07:58:25.035Z,101312.67
2018-07-16T08:00:53.663Z,101306.77
2018-07-16T08:03:22.938Z,101310.44
2018-07-16T08:05:57.363Z,101302.19
2018-07-16T08:08:25.878Z,101300.16
2018-07-16T08:10:54.868Z,101307.89
2018-07-16T08:13:23.555Z,101306.47
2018-07-16T08:15:52.642Z,101302.19
2018-07-16T08:18:21.730Z,101305.13
2018-07-16T08:20:50.271Z,101304.77
2018-07-16T08:23:18.931Z,101301.75
2018-07-16T08:25:47.421Z,101310.09
2018-07-16T08:28:16.059Z,101304.70
2018-07-16T08:30:44.857Z,101315.37
2018-07-16T08:33:13.669Z,101306.72
2018-07-16T08:35:42.202Z,101304.47
2018-07-16T08:38:11.929Z,101297.70
2018-07-16T08:40:40.511Z,101298.37
2018-07-16T08:43:09.010Z,101297.14
2018-07-16T08:45:37.869Z,101296.48
2018-07-16T08:48:06.657Z,101294.72
2018-07-16T08:50:35.113Z,101303.10
2018-07-16T08:53:04.434Z,101300.16
2018-07-16T08:55:33.353Z,101289.45
2018-07-16T08:58:02.094Z,101298.79
2018-07-16T09:00:31.001Z,101300.03
2018-07-16T09:02:59.705Z,101307.00
2018-07-16T09:05:28.389Z,101300.66
2018-07-16T09:07:57.264Z,101291.67
2018-07-16T09:10:25.717Z,101295.77
2018-07-16T09:12:55.134Z,101298.73
2018-07-16T09:15:23.897Z,101291.81
2018-07-16T09:17:52.700Z,101295.55
2018-07-16T09:20:21.733Z,101291.82
2018-07-16T09:22:50.204Z,101299.52
2018-07-16T09:25:18.740Z,101296.77
2018-07-16T09:27:47.745Z,101291.69
2018-07-16T09:30:17.478Z,101290.43
2018-07-16T09:32:46.039Z,101298.39
2018-07-16T09:35:14.778Z,101296.53
2018-07-16T09:37:43.740Z,101296.79
2018-07-16T09:40:12.485Z,101297.53
2018-07-16T09:42:41.133Z,101296.38
2018-07-16T09:45:10.018Z,101298.10
2018-07-16T09:47:38.777Z,101293.38
2018-07-16T09:50:07.312Z,101286.62
2018-07-16T09:52:36.178Z,101294.75
2018-07-16T09:55:04.922Z,101298.53
2018-07-16T09:57:33.562Z,101295.92
2018-07-16T10:00:02.040Z,101298.84
2018-07-16T10:02:30.476Z,101300.74
2018-07-16T10:04:58.987Z,101290.45
2018-07-16T10:07:27.745Z,101301.41
2018-07-16T10:09:56.521Z,101300.10
2018-07-16T10:12:24.974Z,101311.89
2018-07-16T10:14:53.925Z,101307.95
2018-07-16T10:17:23.022Z,101304.70
2018-07-16T10:19:51.737Z,101306.90
2018-07-16T10:22:20.681Z,101312.39
2018-07-16T10:24:49.272Z,101290.16
2018-07-16T10:27:18.669Z,101301.02
2018-07-16T10:29:47.872Z,101301.59
2018-07-16T10:32:16.685Z,101299.47
2018-07-16T10:34:45.661Z,101301.48
2018-07-16T10:37:14.546Z,101293.61
2018-07-16T10:39:43.001Z,101298.76
2018-07-16T10:42:11.807Z,101303.39
2018-07-16T10:44:40.365Z,101294.06
2018-07-16T10:47:09.182Z,101295.48
2018-07-16T10:49:37.777Z,101289.31
2018-07-16T10:52:06.889Z,101295.36
2018-07-16T10:54:35.329Z,101293.84
2018-07-16T10:57:03.873Z,101296.55
2018-07-16T10:59:32.538Z,101288.63
2018-07-16T11:02:01.099Z,101293.38
2018-07-16T11:04:29.737Z,101291.83
2018-07-16T11:06:58.608Z,101293.30
2018-07-16T11:09:27.249Z,101286.34
2018-07-16T11:11:56.074Z,101281.63
2018-07-16T11:14:25.135Z,101286.25
2018-07-16T11:16:53.614Z,101289.35
2018-07-16T11:19:22.090Z,101282.59
2018-07-16T11:21:51.122Z,101287.25
2018-07-16T11:24:20.313Z,101282.49
2018-07-16T11:26:48.997Z,101278.78
2018-07-16T11:29:17.909Z,101282.29
2018-07-16T11:31:46.948Z,101275.06
2018-07-16T11:34:16.099Z,101266.11
2018-07-16T11:36:44.933Z,101274.33
2018-07-16T11:39:13.505Z,101270.81
2018-07-16T11:41:42.048Z,101267.59
2018-07-16T11:44:10.686Z,101270.81
2018-07-16T11:46:39.113Z,101267.00
2018-07-16T11:49:07.714Z,101270.95
2018-07-16T11:51:36.344Z,101272.75
2018-07-16T11:54:05.097Z,101268.37
2018-07-16T11:56:33.638Z,101269.61
2018-07-16T11:59:02.827Z,101265.73
2018-07-16T12:01:31.225Z,101271.13
2018-07-16T12:03:59.701Z,101264.88
2018-07-16T12:06:28.894Z,101263.28
2018-07-16T12:08:57.327Z,101262.26
2018-07-16T12:11:25.815Z,101259.55
2018-07-16T12:13:55.050Z,101271.39
2018-07-16T12:16:23.477Z,101265.64
2018-07-16T12:18:51.997Z,101272.12
2018-07-16T12:21:20.874Z,101258.16
2018-07-16T12:23:49.330Z,101244.29
2018-07-16T12:26:17.927Z,101258.20
2018-07-16T12:28:48.024Z,101259.13
2018-07-16T12:31:16.938Z,101269.05
2018-07-16T12:33:45.677Z,101261.23
2018-07-16T12:36:14.525Z,101262.51
2018-07-16T12:38:43.311Z,101264.08
2018-07-16T12:41:11.761Z,101265.00
2018-07-16T12:43:40.581Z,101263.86
2018-07-16T12:46:09.133Z,101265.59
2018-07-16T12:48:37.566Z,101259.61
2018-07-16T12:51:06.719Z,101256.35
2018-07-16T12:53:35.458Z,101252.17
2018-07-16T12:56:03.891Z,101253.29
2018-07-16T12:58:32.706Z,101256.17
2018-07-16T13:01:01.672Z,101245.69
2018-07-16T13:03:30.475Z,101247.69
2018-07-16T13:05:58.954Z,101236.77
2018-07-16T13:08:27.409Z,101236.63
2018-07-16T13:10:56.502Z,101226.63
2018-07-16T13:13:25.434Z,101237.30
2018-07-16T13:15:54.042Z,101224.44
2018-07-16T13:18:22.865Z,101231.44
2018-07-16T13:20:51.386Z,101230.83
2018-07-16T13:23:19.825Z,101230.02
2018-07-16T13:25:48.646Z,101225.00
2018-07-16T13:28:17.257Z,101224.21
2018-07-16T13:30:45.690Z,101224.38
2018-07-16T13:33:14.377Z,101220.62
2018-07-16T13:35:43.301Z,101218.41
2018-07-16T13:38:11.772Z,101220.34
2018-07-16T13:40:40.470Z,101216.13
2018-07-16T13:43:09.669Z,101211.11
2018-07-16T13:45:38.283Z,101208.93
2018-07-16T13:48:07.109Z,101206.68
2018-07-16T13:50:35.803Z,101211.83
2018-07-16T13:53:05.194Z,101214.88
2018-07-16T13:55:34.068Z,101212.13
2018-07-16T13:58:03.301Z,101210.27
2018-07-16T14:00:31.765Z,101197.83
2018-07-16T14:03:00.666Z,101201.05
2018-07-16T14:05:29.374Z,101202.41
2018-07-16T14:07:57.985Z,101198.58
2018-07-16T14:10:27.135Z,101206.55
2018-07-16T14:12:55.784Z,101209.40
2018-07-16T14:15:24.521Z,101200.48
2018-07-16T14:17:53.622Z,101200.67
2018-07-16T14:20:22.370Z,101208.78
2018-07-16T14:22:50.793Z,101201.28
2018-07-16T14:25:19.274Z,101208.95
2018-07-16T14:27:49.778Z,101208.95
2018-07-16T14:30:18.911Z,101206.53
2018-07-16T14:32:47.382Z,101211.33
2018-07-16T14:35:16.675Z,101208.53
2018-07-16T14:37:45.793Z,101207.88
2018-07-16T14:40:14.230Z,101211.66
2018-07-16T14:42:43.025Z,101206.19
2018-07-16T14:45:11.861Z,101202.77
2018-07-16T14:47:40.556Z,101200.28
2018-07-16T14:50:09.396Z,101203.84
2018-07-16T14:52:38.138Z,101200.55
2018-07-16T14:55:06.974Z,101205.47
2018-07-16T14:57:35.745Z,101201.28
2018-07-16T15:00:04.875Z,101204.20
2018-07-16T15:02:33.345Z,101207.52
2018-07-16T15:05:02.417Z,101203.68
2018-07-16T15:07:31.267Z,101211.35
2018-07-16T15:10:00.185Z,101206.28
2018-07-16T15:12:29.086Z,101208.02
2018-07-16T15:14:57.563Z,101206.55
2018-07-16T15:17:27.273Z,101205.37
2018-07-16T15:19:56.307Z,101206.35
2018-07-16T15:22:24.801Z,101198.38
2018-07-16T15:24:53.558Z,101208.28
2018-07-16T15:27:22.429Z,101204.39
2018-07-16T15:29:51.047Z,101196.59
2018-07-16T15:32:19.531Z,101204.86
2018-07-16T15:34:49.702Z,101207.16
2018-07-16T15:37:18.709Z,101208.47
2018-07-16T15:39:48.088Z,101200.28
2018-07-16T15:42:17.309Z,101191.48
2018-07-16T15:44:46.099Z,101205.67
2018-07-16T15:47:14.754Z,101196.70
2018-07-16T15:49:43.666Z,101201.30
2018-07-16T15:52:12.477Z,101203.73
2018-07-16T15:54:40.925Z,101211.16
2018-07-16T15:57:10.055Z,101205.47
2018-07-16T15:59:38.796Z,101207.41
2018-07-16T16:02:07.581Z,101203.02
2018-07-16T16:04:36.395Z,101197.15
2018-07-16T16:07:07.245Z,101191.94
2018-07-16T16:09:36.989Z,101194.68
2018-07-16T16:12:05.874Z,101192.13
2018-07-16T16:14:34.593Z,101194.05
2018-07-16T16:17:03.298Z,101198.59
2018-07-16T16:19:31.891Z,101197.52
2018-07-16T16:22:00.785Z,101193.56
2018-07-16T16:24:29.636Z,101201.61
2018-07-16T16:26:58.161Z,101190.34
2018-07-16T16:29:26.656Z,101191.12
2018-07-16T16:31:55.905Z,101191.32
2018-07-16T16:34:24.561Z,101195.69
2018-07-16T16:36:53.052Z,101191.20
2018-07-16T16:39:21.793Z,101192.44
2018-07-16T16:41:50.717Z,101194.45
2018-07-16T16:44:19.209Z,101189.92
2018-07-16T16:46:48.475Z,101192.91
2018-07-16T16:49:17.595Z,101193.59
2018-07-16T16:51:46.097Z,101191.85
2018-07-16T16:54:14.572Z,101188.95
2018-07-16T16:56:43.665Z,101187.22
2018-07-16T16:59:12.670Z,101185.13
2018-07-16T17:01:42.082Z,101186.37
2018-07-16T17:04:10.940Z,101183.48
2018-07-16T17:06:39.375Z,101185.27
2018-07-16T17:09:08.915Z,101181.56
2018-07-16T17:11:37.609Z,101188.15
2018-07-16T17:14:06.098Z,101190.59
2018-07-16T17:16:34.885Z,101174.76
2018-07-16T17:19:03.669Z,101197.44
2018-07-16T17:21:32.141Z,101192.23
2018-07-16T17:24:01.314Z,101195.83
2018-07-16T17:26:30.342Z,101192.20
2018-07-16T17:28:58.790Z,101193.13
2018-07-16T17:31:27.597Z,101196.83
2018-07-16T17:33:56.487Z,101197.61
2018-07-16T17:36:25.537Z,101196.37
2018-07-16T17:38:54.030Z,101202.92
2018-07-16T17:41:23.054Z,101204.66
2018-07-16T17:43:51.613Z,101205.31
2018-07-16T17:46:20.132Z,101207.36
2018-07-16T17:48:48.813Z,101211.91
2018-07-16T17:51:18.238Z,101208.25
2018-07-16T17:53:47.301Z,101212.02
2018-07-16T17:56:16.635Z,101213.63
2018-07-16T17:58:45.081Z,101209.33
2018-07-16T18:01:14.097Z,101215.66
2018-07-16T18:03:42.826Z,101212.27
2018-07-16T18:06:11.246Z,101216.87
2018-07-16T18:08:40.018Z,101217.02
2018-07-16T18:11:08.913Z,101215.17
2018-07-16T18:13:37.622Z,101220.02
2018-07-16T18:16:06.836Z,101218.42
2018-07-16T18:18:35.513Z,101220.84
2018-07-16T18:21:04.051Z,101218.25
2018-07-16T18:23:32.689Z,101225.78
2018-07-16T18:26:01.648Z,101231.16
2018-07-16T18:28:30.071Z,101236.55
2018-07-16T18:30:58.794Z,101240.09
2018-07-16T18:33:27.609Z,101246.32
2018-07-16T18:35:58.926Z,101241.33
2018-07-16T18:38:27.901Z,101247.55
2018-07-16T18:40:56.744Z,101252.56
2018-07-16T18:43:25.619Z,101253.98
2018-07-16T18:45:54.083Z,101261.57
2018-07-16T18:48:22.793Z,101264.94
2018-07-16T18:50:51.933Z,101259.94
2018-07-16T18:53:20.737Z,101257.56
2018-07-16T18:55:49.467Z,101269.16
2018-07-16T18:58:19.309Z,101271.23
2018-07-16T19:00:48.937Z,101273.23
2018-07-16T19:03:17.769Z,101274.37
2018-07-16T19:05:47.025Z,101278.23
2018-07-16T19:08:16.165Z,101277.66
2018-07-16T19:10:44.957Z,101276.14
2018-07-16T19:13:13.485Z,101287.22
2018-07-16T19:15:41.955Z,101286.23
2018-07-16T19:18:10.797Z,101289.23
2018-07-16T19:20:39.648Z,101296.68
2018-07-16T19:23:08.609Z,101294.63
2018-07-16T19:25:37.378Z,101293.53
2018-07-16T19:28:06.326Z,101290.60
2018-07-16T19:30:35.374Z,101292.65
2018-07-16T19:33:04.302Z,101296.98
2018-07-16T19:35:32.800Z,101295.91
2018-07-16T19:38:01.323Z,101296.66
2018-07-16T19:40:30.781Z,101301.55
2018-07-16T19:42:59.580Z,101302.13
2018-07-16T19:45:28.129Z,101306.64
2018-07-16T19:47:56.909Z,101302.09
2018-07-16T19:50:25.370Z,101296.19
2018-07-16T19:52:53.821Z,101302.97
2018-07-16T19:55:22.868Z,101304.98
2018-07-16T19:57:51.418Z,101299.91
2018-07-16T20:00:19.876Z,101299.64
2018-07-16T20:02:48.682Z,101300.22
2018-07-16T20:05:17.388Z,101293.22
2018-07-16T20:07:46.025Z,101296.95
2018-07-16T20:10:14.813Z,101298.53
2018-07-16T20:12:43.322Z,101299.61
2018-07-16T20:15:17.129Z,101304.25
2018-07-16T20:17:46.073Z,101299.06
2018-07-16T20:20:14.620Z,101294.89
2018-07-16T20:22:43.423Z,101295.03
2018-07-16T20:25:11.881Z,101296.98
2018-07-16T20:27:40.494Z,101301.20
2018-07-16T20:30:10.054Z,101305.89
2018-07-16T20:32:38.801Z,101303.89
2018-07-16T20:35:07.486Z,101303.19
2018-07-16T20:37:36.348Z,101299.41
2018-07-16T20:40:05.126Z,101304.95
2018-07-16T20:42:33.597Z,101303.15
2018-07-16T20:45:02.732Z,101301.89
2018-07-16T20:47:31.178Z,101298.12
2018-07-16T20:49:59.654Z,101304.25
2018-07-16T20:52:28.760Z,101303.37
2018-07-16T20:54:57.561Z,101304.80
2018-07-16T20:57:26.001Z,101303.66
2018-07-16T20:59:54.877Z,101304.41
2018-07-16T21:02:23.946Z,101301.05
2018-07-16T21:04:52.401Z,101308.49
2018-07-16T21:07:21.505Z,101310.48
2018-07-16T21:09:50.274Z,101312.94
2018-07-16T21:12:18.725Z,101294.61
2018-07-16T21:14:47.407Z,101319.73
2018-07-16T21:17:16.133Z,101322.26
2018-07-16T21:19:44.721Z,101318.23
2018-07-16T21:22:13.913Z,101320.22
2018-07-16T21:24:42.505Z,101321.82
2018-07-16T21:27:11.130Z,101322.00
2018-07-16T21:29:39.977Z,101326.66
2018-07-16T21:32:08.941Z,101324.02
2018-07-16T21:34:37.529Z,101331.11
2018-07-16T21:37:06.011Z,101337.50
2018-07-16T21:39:34.489Z,101332.31
2018-07-16T21:42:03.206Z,101334.14
2018-07-16T21:44:32.233Z,101329.34
2018-07-16T21:47:00.681Z,101336.63
2018-07-16T21:49:29.160Z,101338.11
2018-07-16T21:51:57.929Z,101336.41
2018-07-16T21:54:26.353Z,101342.30
2018-07-16T21:56:54.801Z,101335.98
2018-07-16T21:59:23.923Z,101337.68
2018-07-16T22:01:53.082Z,101340.36
2018-07-16T22:04:21.927Z,101341.48
2018-07-16T22:06:50.374Z,101342.42
2018-07-16T22:09:19.094Z,101344.22
2018-07-16T22:11:48.298Z,101349.61
2018-07-16T22:14:17.170Z,101343.50
2018-07-16T22:16:46.022Z,101348.43
2018-07-16T22:19:14.761Z,101343.09
2018-07-16T22:21:43.678Z,101340.41
2018-07-16T22:24:12.389Z,101346.20
2018-07-16T22:26:40.817Z,101340.45
2018-07-16T22:29:09.726Z,101335.19
2018-07-16T22:31:38.501Z,101231.53
2018-07-16T22:34:07.457Z,101331.34
2018-07-16T22:36:36.306Z,101331.07
2018-07-16T22:39:06.853Z,101332.92
2018-07-16T22:41:35.982Z,101330.33
2018-07-16T22:44:04.505Z,101332.19
2018-07-16T22:46:33.225Z,101337.20
2018-07-16T22:49:01.997Z,101331.98
2018-07-16T22:51:31.171Z,101328.97
2018-07-16T22:53:59.701Z,101333.02
2018-07-16T22:56:28.210Z,101325.49
2018-07-16T22:58:57.220Z,101329.98
2018-07-16T23:01:25.725Z,101332.70
2018-07-16T23:03:54.209Z,101338.13
2018-07-16T23:06:23.091Z,101336.89
2018-07-16T23:08:51.798Z,101340.48
2018-07-16T23:11:20.293Z,101343.66
2018-07-16T23:13:48.765Z,101339.81
2018-07-16T23:16:17.841Z,101334.97
2018-07-16T23:18:47.402Z,101335.03
2018-07-16T23:21:16.441Z,101334.63
2018-07-16T23:23:44.902Z,101335.57
2018-07-16T23:26:13.865Z,101328.02
2018-07-16T23:28:42.357Z,101329.38
2018-07-16T23:31:10.874Z,101328.55
2018-07-16T23:33:39.585Z,101328.59
2018-07-16T23:36:08.987Z,101335.86
2018-07-16T23:38:37.561Z,101327.02
2018-07-16T23:41:06.574Z,101332.42
2018-07-16T23:43:35.235Z,101330.73
2018-07-16T23:46:04.085Z,101325.91
2018-07-16T23:48:32.642Z,101322.86
2018-07-16T23:51:01.261Z,101321.95
2018-07-16T23:53:29.767Z,101325.63
2018-07-16T23:55:58.280Z,101326.58
2018-07-16T23:58:27.449Z,101323.47
